Portada
METAR-TAF:

Aeropuertos :

Humberside, Inglaterra

latitud: 53-35N, longitud: 000-21W, altitud: 31 m

Observación

El informe se hizo hace 33 minutos, a las 09:50 UTC
Viento 2 kt con dirección variable
Temperatura 13°C
Humedad 88%
Presión 1006 hPa
Visibilidad 10 km o más
Escasas nubes a una altura de 2400 ft

METAR: EGNJ 010950Z VRB02KT 9999 FEW024 13/11 Q1006

Hora: 11:23 (10:23 UTC)

Pronóstico

El informe se hizo hace 1 hora y 19 minutos, a las 09:04 UTC
Pronóstico válido del 01 a las 09 UTC al 01 a las 18 UTC
Viento 6 kt del noreste
Visibilidad: 8000 m
Escasas nubes a una altura de 4000 ft
Evolucionando progresivamente
del 01 a las 09 UTC al 01 a las 11 UTC
Visibilidad 10 km o más
Probabilidad 30% :
Temporalmente
del 01 a las 12 UTC al 01 a las 18 UTC
Visibilidad: 7000 m
chaparrones de lluvia

TAF: EGNJ 010904Z 0109/0118 05006KT 8000 FEW040 BECMG 0109/0111 9999 PROB30 TEMPO 0112/0118 7000 SHRA

METAR-TAF

Observaciones y pronósticos meteorológicos de más de 4000 aeropuertos (mensajes METAR y TAF).

Los puntos amarillos y rojos representan las estaciones disponibles.

Ponga el ratón en el punto deseado para ver el nombre de la estación.

Haga clic para ver las observaciones y los pronósticos meteorológicos.

Para cambiar el mapa : haga clic en los botones verdes con una cruz de color negro para hacer un zoom, en el botón verde con un guión para alejar o en las flechas verdes para mapas adyacentes.


METAR-TAF: